Time;durP1;ratioP1;P1;durP2;ratioP2;P2;SDS_P1;SDS_P2;PMS_P1;PMS_P2;Temp;Humidity;BMP_temperature;BMP_pressure;BME280_temperature;BME280_humidity;BME280_pressure;Samples;Min_cycle;Max_cycle;Signal;HPM_P1;HPM_P2
2022/08/12 00:42:56;;;;;;;4.10;1.75;;;19.90;99.90;;;;;;20919083;28;20121;-77
2022/08/12 00:52:57;;;;;;;5.10;1.83;;;19.80;99.90;;;;;;20918148;28;20049;-77
2022/08/12 01:03:00;;;;;;;3.28;1.85;;;19.50;99.90;;;;;;20921731;28;20085;-78
2022/08/12 01:13:02;;;;;;;3.20;1.70;;;19.40;99.90;;;;;;20905346;28;20465;-78
2022/08/12 01:23:36;;;;;;;2.90;2.10;;;19.30;99.90;;;;;;20982995;28;20044;-77
2022/08/12 01:33:51;;;;;;;4.05;2.05;;;19.40;99.90;;;;;;20954980;28;20131;-78
2022/08/12 01:43:54;;;;;;;3.78;2.25;;;19.30;99.90;;;;;;20927070;28;20037;-78
2022/08/12 01:54:04;;;;;;;3.55;1.90;;;18.90;99.90;;;;;;20951709;28;20032;-78
2022/08/12 02:15:22;;;;;;;;;;;18.60;99.90;;;;;;20875573;28;20124;-77
2022/08/12 02:25:34;;;;;;;3.53;1.90;;;18.50;99.90;;;;;;20959420;28;19919;-77
2022/08/12 02:35:38;;;;;;;1.98;1.60;;;18.50;99.90;;;;;;20991827;28;20050;-77
2022/08/12 02:46:05;;;;;;;2.80;1.77;;;18.50;99.90;;;;;;20991070;28;20047;-77
2022/08/12 02:56:06;;;;;;;3.15;2.10;;;18.20;99.90;;;;;;20990498;28;20040;-78
2022/08/12 03:06:15;;;;;;;4.00;2.17;;;18.10;99.90;;;;;;20990320;28;20044;-77
2022/08/12 03:16:18;;;;;;;2.75;2.03;;;18.00;99.90;;;;;;21008542;28;20090;-78
2022/08/12 03:26:23;;;;;;;2.45;2.03;;;18.00;99.90;;;;;;21071033;22;20106;-77
2022/08/12 03:36:26;;;;;;;3.97;1.92;;;17.70;99.90;;;;;;21116069;28;20071;-78
2022/08/12 04:07:15;;;;;;;3.53;1.95;;;17.70;99.90;;;;;;21112989;28;20060;-78
2022/08/12 04:17:16;;;;;;;8.05;2.58;;;17.40;99.90;;;;;;21129746;28;20390;-77
2022/08/12 04:27:17;;;;;;;3.17;2.03;;;17.40;99.90;;;;;;21061520;28;1172762;-77
2022/08/12 04:37:17;;;;;;;4.33;2.03;;;17.40;99.90;;;;;;21101569;28;20044;-77
2022/08/12 04:47:20;;;;;;;3.13;2.10;;;17.30;99.90;;;;;;21103626;28;20556;-78
2022/08/12 04:57:20;;;;;;;2.67;2.08;;;17.30;99.90;;;;;;21101605;28;20049;-77
2022/08/12 05:07:22;;;;;;;5.37;2.03;;;17.40;99.90;;;;;;21103145;28;20032;-78
2022/08/12 05:17:25;;;;;;;4.20;2.07;;;17.40;99.90;;;;;;21102267;28;20072;-76
2022/08/12 05:27:25;;;;;;;4.05;2.17;;;17.40;99.90;;;;;;21100556;28;20512;-77
2022/08/12 05:37:26;;;;;;;6.73;2.43;;;17.80;99.90;;;;;;21111049;28;20036;-78
2022/08/12 05:47:27;;;;;;;4.93;1.87;;;18.10;99.90;;;;;;21103253;28;20066;-78
2022/08/12 05:57:28;;;;;;;6.07;2.30;;;18.20;99.90;;;;;;21100338;28;20044;-77
2022/08/12 06:07:30;;;;;;;3.30;1.90;;;18.40;99.90;;;;;;21099045;28;20048;-77
2022/08/12 06:17:31;;;;;;;4.57;2.00;;;18.80;99.90;;;;;;21095371;28;20447;-77
2022/08/12 06:27:33;;;;;;;5.00;1.83;;;19.50;99.90;;;;;;21092577;28;20048;-78
2022/08/12 06:37:51;;;;;;;8.57;2.28;;;19.90;99.90;;;;;;21093649;28;20131;-77
2022/08/12 06:47:53;;;;;;;5.13;1.60;;;20.50;99.90;;;;;;21099016;28;20036;-78
2022/08/12 06:57:56;;;;;;;3.80;2.00;;;20.80;99.90;;;;;;21105021;28;20036;-78
2022/08/12 07:08:04;;;;;;;2.80;1.85;;;21.30;99.90;;;;;;21098872;28;20052;-78
2022/08/12 07:18:11;;;;;;;6.18;2.17;;;22.10;99.90;;;;;;21095026;28;20397;-77
2022/08/12 07:28:14;;;;;;;4.30;1.60;;;23.10;99.90;;;;;;21095433;28;20040;-78
2022/08/12 07:38:24;;;;;;;5.80;2.10;;;23.50;99.60;;;;;;21091984;28;20047;-77
2022/08/12 07:48:26;;;;;;;2.08;1.50;;;24.50;97.60;;;;;;21091788;28;20042;-78
2022/08/12 07:58:27;;;;;;;3.42;1.63;;;24.80;97.50;;;;;;21100834;28;20101;-77
2022/08/12 08:08:28;;;;;;;3.75;2.20;;;24.40;97.10;;;;;;21096093;28;20079;-76
2022/08/12 08:18:30;;;;;;;9.18;1.65;;;25.10;96.70;;;;;;21088186;28;20046;-77
2022/08/12 08:28:34;;;;;;;3.55;1.70;;;25.80;95.40;;;;;;21086509;28;20040;-77
2022/08/12 08:38:35;;;;;;;2.90;1.60;;;26.30;94.80;;;;;;21085381;28;20052;-77
2022/08/12 08:48:36;;;;;;;9.07;1.40;;;26.80;94.10;;;;;;21086169;28;20044;-76
2022/08/12 08:58:37;;;;;;;2.42;1.27;;;27.20;92.90;;;;;;21089709;28;20087;-77
2022/08/12 09:08:38;;;;;;;3.60;1.33;;;27.70;90.40;;;;;;21101825;28;20036;-78
2022/08/12 09:18:39;;;;;;;9.70;1.20;;;27.60;90.60;;;;;;20987168;28;20677;-77
2022/08/12 09:28:40;;;;;;;2.72;1.30;;;27.70;90.20;;;;;;20938603;28;20506;-76
2022/08/12 09:38:42;;;;;;;2.75;1.30;;;28.30;88.00;;;;;;20913278;28;20124;-76
2022/08/12 09:48:43;;;;;;;1.65;0.95;;;28.60;87.60;;;;;;20912530;28;20048;-75
2022/08/12 09:58:49;;;;;;;2.55;1.20;;;28.60;84.70;;;;;;20977287;28;20039;-76
2022/08/12 10:08:50;;;;;;;3.72;1.27;;;29.20;86.20;;;;;;20995550;28;20048;-76
2022/08/12 10:18:58;;;;;;;4.88;1.20;;;29.30;84.50;;;;;;20997308;28;20040;-76
2022/08/12 10:39:19;;;;;;;5.10;1.30;;;29.80;83.00;;;;;;21003692;28;20070;-75
2022/08/12 10:49:27;;;;;;;3.83;1.30;;;30.10;82.80;;;;;;21003086;28;20076;-75
2022/08/12 10:59:28;;;;;;;1.92;0.98;;;30.50;83.50;;;;;;20993410;28;20033;-75
2022/08/12 11:09:30;;;;;;;1.70;1.05;;;30.70;81.40;;;;;;20918297;28;20043;-75
2022/08/12 11:19:31;;;;;;;1.92;1.10;;;30.60;80.40;;;;;;20908135;28;20073;-76
2022/08/12 11:29:33;;;;;;;2.83;1.00;;;31.50;79.50;;;;;;20989826;28;20085;-76
2022/08/12 11:39:34;;;;;;;1.60;0.90;;;31.20;79.00;;;;;;21005189;28;20419;-76
2022/08/12 11:49:35;;;;;;;2.13;1.00;;;31.00;77.50;;;;;;21006015;28;20136;-76
2022/08/12 11:59:36;;;;;;;1.15;0.80;;;31.60;76.70;;;;;;21012333;28;20398;-77
2022/08/12 12:09:37;;;;;;;4.88;0.95;;;31.30;74.60;;;;;;21005998;28;20045;-76
2022/08/12 12:19:38;;;;;;;2.35;1.00;;;31.30;74.00;;;;;;21002730;28;20043;-75
2022/08/12 12:29:39;;;;;;;1.60;1.00;;;31.40;76.40;;;;;;20921847;28;20491;-76
2022/08/12 12:39:40;;;;;;;1.43;1.13;;;31.10;75.80;;;;;;20919408;28;20041;-76
2022/08/12 12:49:41;;;;;;;2.08;1.10;;;31.70;74.70;;;;;;20918725;28;20362;-76
2022/08/12 13:00:13;;;;;;;5.97;1.20;;;31.40;76.40;;;;;;20919016;28;20040;-76
2022/08/12 13:10:03;;;;;;;;;;;31.80;73.60;;;;;;20919579;28;20115;-76
2022/08/12 13:20:04;;;;;;;4.13;1.00;;;31.90;73.40;;;;;;20925990;28;19923;-75
2022/08/12 13:30:08;;;;;;;2.97;0.88;;;31.90;72.90;;;;;;20969665;28;20048;-75
2022/08/12 13:40:10;;;;;;;3.38;0.80;;;31.20;73.70;;;;;;20977942;28;20036;-75
2022/08/12 13:50:11;;;;;;;4.03;0.82;;;31.80;72.00;;;;;;20998009;28;20123;-75
2022/08/12 14:00:13;;;;;;;2.05;0.88;;;31.70;72.20;;;;;;20980164;28;20064;-77
2022/08/12 14:10:36;;;;;;;2.38;0.93;;;31.90;71.30;;;;;;21021364;28;20256;-76
2022/08/12 14:20:37;;;;;;;3.67;1.02;;;32.30;71.70;;;;;;21018145;28;20450;-76
2022/08/12 14:30:52;;;;;;;4.10;1.30;;;31.70;72.50;;;;;;20994109;28;20090;-76
2022/08/12 14:40:59;;;;;;;1.17;0.68;;;31.80;71.30;;;;;;20999498;28;20047;-75
2022/08/12 14:51:00;;;;;;;5.45;1.00;;;31.40;69.60;;;;;;20993946;28;20087;-76
2022/08/12 15:11:20;;;;;;;4.50;0.88;;;31.00;71.30;;;;;;20935045;28;20052;-75
2022/08/12 15:21:23;;;;;;;2.67;0.80;;;30.60;71.60;;;;;;20911960;28;20115;-76
2022/08/12 15:31:24;;;;;;;4.03;1.50;;;30.80;71.60;;;;;;20910651;28;20044;-76
2022/08/12 15:41:24;;;;;;;1.80;0.88;;;30.00;72.10;;;;;;20938509;28;20040;-76
2022/08/12 15:51:33;;;;;;;4.50;0.90;;;29.90;74.20;;;;;;21011704;28;20047;-76
2022/08/12 16:01:34;;;;;;;3.08;0.82;;;29.60;74.10;;;;;;20952524;28;20088;-77
2022/08/12 16:11:41;;;;;;;3.05;0.70;;;29.40;73.90;;;;;;20933918;28;20041;-76
2022/08/12 16:21:42;;;;;;;2.30;0.80;;;28.90;74.80;;;;;;20959375;28;20044;-76
2022/08/12 16:31:43;;;;;;;2.50;1.10;;;28.50;75.80;;;;;;20965826;28;20116;-77
2022/08/12 16:41:45;;;;;;;1.55;0.80;;;28.20;76.60;;;;;;20982540;28;20410;-76
2022/08/12 16:51:45;;;;;;;9.20;1.20;;;28.00;76.00;;;;;;21004253;28;20075;-76
2022/08/12 17:01:48;;;;;;;5.70;0.93;;;27.70;77.30;;;;;;21004997;28;20060;-76
2022/08/12 17:11:49;;;;;;;4.78;0.90;;;27.20;78.30;;;;;;21010564;28;20036;-77
2022/08/12 17:21:50;;;;;;;2.03;0.73;;;27.00;78.70;;;;;;21003673;28;20127;-76
2022/08/12 17:31:53;;;;;;;1.65;0.73;;;26.80;78.70;;;;;;21004750;28;20556;-76
2022/08/12 17:41:54;;;;;;;4.28;1.13;;;26.60;79.40;;;;;;21002418;28;20041;-76
2022/08/12 17:51:55;;;;;;;1.25;0.70;;;26.60;79.30;;;;;;20997231;28;20036;-76
2022/08/12 18:01:57;;;;;;;1.05;0.63;;;26.40;80.50;;;;;;20994512;28;20039;-75
2022/08/12 18:22:19;;;;;;;3.20;0.80;;;25.80;83.70;;;;;;20995645;28;20045;-76
2022/08/12 18:32:24;;;;;;;3.85;1.10;;;25.50;85.70;;;;;;21000188;28;20506;-76
2022/08/12 18:42:27;;;;;;;2.33;1.17;;;25.30;86.50;;;;;;20992027;28;20388;-76
2022/08/12 18:52:32;;;;;;;2.63;1.00;;;25.00;87.40;;;;;;20983998;28;20041;-76
2022/08/12 19:02:35;;;;;;;4.63;1.13;;;24.40;89.20;;;;;;20943145;28;20056;-76
2022/08/12 19:22:56;;;;;;;3.45;2.28;;;23.40;91.40;;;;;;20954135;28;20055;-76
2022/08/12 19:32:59;;;;;;;3.67;1.00;;;23.20;91.60;;;;;;20970962;28;20075;-75
2022/08/12 19:43:09;;;;;;;3.80;1.40;;;22.90;92.30;;;;;;20992590;28;20062;-75
2022/08/12 19:53:12;;;;;;;5.70;1.52;;;22.60;92.70;;;;;;20991640;28;20047;-75
2022/08/12 20:03:12;;;;;;;3.00;1.35;;;22.30;93.10;;;;;;21004562;28;20032;-75
2022/08/12 20:13:17;;;;;;;4.57;1.33;;;22.00;93.50;;;;;;21003898;28;20124;-75
2022/08/12 20:23:22;;;;;;;1.98;1.30;;;21.80;93.60;;;;;;21003117;28;20051;-75
2022/08/12 20:33:24;;;;;;;6.15;1.50;;;21.60;94.00;;;;;;20985403;28;20047;-75
2022/08/12 20:43:25;;;;;;;2.17;1.30;;;21.30;94.30;;;;;;21002051;28;20434;-75
2022/08/12 20:53:27;;;;;;;3.88;1.20;;;21.00;94.70;;;;;;21003450;28;20042;-76
2022/08/12 21:13:48;;;;;;;1.80;1.10;;;20.80;94.90;;;;;;20999711;28;20454;-75
2022/08/12 21:23:49;;;;;;;;;;;20.60;95.30;;;;;;21027962;22;20419;-75
2022/08/12 21:33:54;;;;;;;6.57;1.60;;;20.30;95.70;;;;;;21073455;28;19916;-76
2022/08/12 21:43:57;;;;;;;2.15;1.40;;;20.00;96.20;;;;;;21081213;28;20117;-77
2022/08/12 21:53:58;;;;;;;3.95;1.50;;;19.80;96.30;;;;;;21080039;28;20047;-77
2022/08/12 22:14:20;;;;;;;1.73;1.33;;;18.90;98.00;;;;;;21060306;28;20047;-76
2022/08/12 22:24:21;;;;;;;4.22;1.63;;;19.10;97.60;;;;;;21059515;28;20531;-76
2022/08/12 22:34:24;;;;;;;3.03;1.70;;;19.30;97.20;;;;;;21077406;28;20047;-77
2022/08/12 22:54:44;;;;;;;4.13;1.77;;;18.80;98.70;;;;;;21057770;28;20040;-76
2022/08/12 23:04:45;;;;;;;3.07;1.63;;;18.80;99.00;;;;;;21075364;28;20070;-76
2022/08/12 23:14:47;;;;;;;1.53;1.30;;;18.70;99.10;;;;;;21074392;28;20498;-77
2022/08/12 23:24:47;;;;;;;;;;;18.60;99.80;;;;;;21074526;28;20047;-75
2022/08/12 23:34:48;;;;;;;2.70;1.70;;;18.50;99.60;;;;;;21089782;28;19947;-76
2022/08/12 23:44:52;;;;;;;2.17;1.40;;;18.30;99.70;;;;;;21090771;28;20036;-76
2022/08/12 23:54:52;;;;;;;4.15;1.15;;;18.30;99.70;;;;;;21089906;28;20458;-77
